Brushvale, Minnesota
Current Conditions -  °F | °C
As of 11:15 AM on Friday 24 Oct 2014 (Local Time) from KBWP Reporting Station
Clear Clear  
Wind Chill: 57°   Ceiling: Unl
Heat Index: 57°   Visibility: 10mi
Dew Point: 41°   Wind: 7mph
Humidity: 55%   Direction: 270°W
Pressure: 29.85"   Gusts: NA
Location:  46.3422°N, 96.4653°W
Report Text: KBWP 241615Z AUTO 27006KT 10SM CLR 14/05 A2985 RMK AO1
Loading
Personal Weather Stations






























Interactive Weather Map
Tropical Storm Tracking
New forecast layout! Learn more

10-Day Weather Forecast

Advertisements
Track Severe Weather on mobile